This is the latest recevied weather packets stored in our database for station/object KI4BSX. If no packets are shown the sender has not sent any weather packets the latest 1 day(s).
| Time | Temp. | Humidity | Pressure | Rain* | Wind** | Luminosity | Snow |
|---|---|---|---|---|---|---|---|
| 1778088546 | 25.56° C | 66% | 1017 hPa | 0 mm | - | - | - |
| 1778087334 | 25.56° C | 67% | 1017.3 hPa | 0 mm | - | - | - |
| 1778086724 | 25.56° C | 70% | 1016.9 hPa | 0 mm | - | - | - |
| 1778085814 | 23.89° C | 74% | 1017 hPa | 0 mm | - | - | - |
| 1778085512 | 23.89° C | 74% | 1017.3 hPa | 0 mm | - | - | - |
| 1778084600 | 23.33° C | 73% | 1018.1 hPa | 0 mm | - | - | - |
| 1778083994 | 24.44° C | 72% | 1018.3 hPa | 0 mm | - | - | - |
| 1778083692 | 24.44° C | 72% | 1018.2 hPa | 0 mm | - | - | - |
| 1778081353 | 22.78° C | 77% | 1017.7 hPa | 0 mm | - | - | - |
| 1778077115 | 20.56° C | 82% | 1017.2 hPa | 0 mm | - | - | - |
| 1778075904 | 19.44° C | 83% | 1017.2 hPa | 0 mm | - | - | - |
| 1778075297 | 19.44° C | 83% | 1017.4 hPa | 0 mm | - | - | - |
| 1778074084 | 18.89° C | 83% | 1017.1 hPa | 0 mm | - | - | - |
| 1778073781 | 18.89° C | 84% | 1017.1 hPa | 0 mm | - | - | - |
| 1778073175 | 18.89° C | 85% | 1017.2 hPa | 0 mm | - | - | - |
| 1778072872 | 18.89° C | 85% | 1017.1 hPa | 0 mm | - | - | - |
| 1778072569 | 18.33° C | 84% | 1017.2 hPa | 0 mm | - | - | - |
| 1778072267 | 18.89° C | 84% | 1017.4 hPa | 0 mm | - | - | - |
| 1778071663 | 18.89° C | 85% | 1017.6 hPa | 0 mm | - | - | - |
| 1778071360 | 18.89° C | 85% | 1017.6 hPa | 0 mm | - | - | - |
| 1778070756 | 18.33° C | 85% | 1017.4 hPa | 0 mm | - | - | - |
| 1778069848 | 17.78° C | 86% | 1017.3 hPa | 0 mm | - | - | - |
| 1778068335 | 17.22° C | 85% | 1016.7 hPa | 0 mm | - | - | - |
| 1778067730 | 17.22° C | 84% | 1016.9 hPa | 0 mm | - | - | - |
| 1778065914 | 16.67° C | 83% | 1016.8 hPa | 0 mm | - | - | - |
* Rain latest hour (hover to see other rain measurements)
** Current wind speed in m/s (hover to see current wind gust speed)